createdAt,value
2023-03-17T00:00:52.070Z,3.00
2023-03-17T00:01:52.024Z,2.70
2023-03-17T00:02:52.082Z,3.00
2023-03-17T00:03:52.013Z,2.60
2023-03-17T00:04:52.045Z,3.00
2023-03-17T00:05:51.979Z,2.60
2023-03-17T00:06:52.008Z,2.50
2023-03-17T00:07:51.927Z,2.70
2023-03-17T00:08:51.951Z,2.70
2023-03-17T00:09:51.897Z,2.70
2023-03-17T00:10:51.904Z,3.40
2023-03-17T00:11:51.865Z,2.40
2023-03-17T00:12:51.873Z,3.10
2023-03-17T00:13:51.849Z,2.80
2023-03-17T00:14:51.830Z,2.60
2023-03-17T00:15:51.910Z,2.60
2023-03-17T00:16:51.809Z,2.50
2023-03-17T00:17:51.785Z,2.40
2023-03-17T00:18:51.782Z,2.70
2023-03-17T00:19:51.754Z,2.90
2023-03-17T00:20:51.760Z,2.70
2023-03-17T00:21:51.749Z,2.70
2023-03-17T00:22:51.734Z,3.10
2023-03-17T00:23:51.736Z,2.70
2023-03-17T00:24:51.692Z,2.90
2023-03-17T00:25:51.679Z,3.00
2023-03-17T00:26:51.681Z,2.70
2023-03-17T00:27:51.670Z,3.00
2023-03-17T00:28:51.655Z,2.70
2023-03-17T00:29:51.625Z,2.40
2023-03-17T00:30:51.740Z,2.60
2023-03-17T00:31:51.604Z,2.60
2023-03-17T00:32:51.664Z,2.50
2023-03-17T00:33:51.586Z,2.20
2023-03-17T00:34:51.570Z,2.40
2023-03-17T00:35:51.704Z,3.10
2023-03-17T00:36:51.587Z,2.60
2023-03-17T00:37:51.523Z,2.70
2023-03-17T00:38:51.516Z,2.60
2023-03-17T00:39:51.490Z,2.50
2023-03-17T00:40:51.492Z,2.40
2023-03-17T00:41:51.467Z,2.50
2023-03-17T00:42:51.463Z,2.80
2023-03-17T00:43:51.482Z,2.50
2023-03-17T00:44:51.456Z,2.70
2023-03-17T00:45:51.449Z,2.80
2023-03-17T00:46:51.451Z,2.60
2023-03-17T00:47:51.394Z,2.70
2023-03-17T00:48:51.386Z,2.60
2023-03-17T00:49:51.352Z,2.40
2023-03-17T00:50:51.353Z,2.40
2023-03-17T00:51:51.342Z,2.30
2023-03-17T00:52:51.339Z,2.60
2023-03-17T00:53:51.314Z,2.50
2023-03-17T00:54:51.323Z,2.60
2023-03-17T00:55:51.294Z,3.00
2023-03-17T00:56:51.292Z,2.90
2023-03-17T00:57:51.260Z,2.70
2023-03-17T00:58:51.343Z,2.40
2023-03-17T00:59:51.232Z,2.50
2023-03-17T01:00:51.479Z,2.60
2023-03-17T01:01:51.281Z,2.60
2023-03-17T01:02:51.200Z,2.70
2023-03-17T01:03:51.191Z,2.50
2023-03-17T01:04:59.734Z,3.00
2023-03-17T01:05:51.147Z,2.60
2023-03-17T01:06:51.151Z,3.00
2023-03-17T01:07:51.116Z,2.50
2023-03-17T01:08:51.138Z,3.00
2023-03-17T01:09:51.086Z,3.00
2023-03-17T01:10:51.080Z,2.80
2023-03-17T01:11:51.067Z,2.60
2023-03-17T01:12:51.081Z,3.10
2023-03-17T01:13:51.062Z,2.90
2023-03-17T01:14:51.022Z,2.80
2023-03-17T01:15:51.014Z,2.90
2023-03-17T01:16:50.994Z,2.70
2023-03-17T01:17:50.976Z,2.90
2023-03-17T01:18:51.042Z,2.70
2023-03-17T01:19:51.023Z,2.60
2023-03-17T01:20:50.952Z,3.10
2023-03-17T01:21:50.943Z,2.70
2023-03-17T01:22:50.907Z,2.70
2023-03-17T01:23:50.917Z,2.90
2023-03-17T01:24:50.897Z,2.50
2023-03-17T01:25:50.901Z,2.60
2023-03-17T01:26:50.959Z,2.70
2023-03-17T01:27:50.854Z,2.80
2023-03-17T01:28:50.888Z,3.00
2023-03-17T01:29:50.821Z,2.70
2023-03-17T01:30:50.822Z,2.60
2023-03-17T01:31:50.834Z,2.60
2023-03-17T01:32:50.842Z,2.60
2023-03-17T01:33:50.789Z,3.10
2023-03-17T01:34:50.776Z,2.60
2023-03-17T01:35:50.803Z,2.60
2023-03-17T01:36:50.751Z,2.80
2023-03-17T01:37:50.721Z,2.70
2023-03-17T01:38:50.748Z,2.80
2023-03-17T01:39:50.704Z,2.80
2023-03-17T01:40:50.753Z,2.90
2023-03-17T01:41:50.672Z,2.60
2023-03-17T01:42:50.693Z,2.50
2023-03-17T01:43:50.635Z,2.80
2023-03-17T01:44:50.648Z,2.60
2023-03-17T01:45:50.649Z,2.30
2023-03-17T01:46:50.614Z,2.90
2023-03-17T01:47:50.583Z,2.90
2023-03-17T01:48:50.577Z,2.50
2023-03-17T01:49:50.568Z,2.60
2023-03-17T01:50:50.552Z,2.20
2023-03-17T01:51:50.546Z,3.00
2023-03-17T01:52:50.523Z,2.60
2023-03-17T01:53:50.514Z,2.50
2023-03-17T01:54:50.571Z,2.60
2023-03-17T01:55:50.473Z,2.70
2023-03-17T01:56:50.473Z,2.90
2023-03-17T01:57:50.446Z,3.00
2023-03-17T01:58:50.441Z,2.70
2023-03-17T01:59:50.436Z,2.80
2023-03-17T02:00:50.427Z,2.60
2023-03-17T02:01:50.399Z,2.70
2023-03-17T02:02:50.397Z,3.10
2023-03-17T02:03:50.407Z,2.60
2023-03-17T02:04:50.434Z,2.70
2023-03-17T02:05:50.347Z,2.60
2023-03-17T02:06:57.950Z,2.90
2023-03-17T02:07:50.325Z,2.60
2023-03-17T02:08:50.344Z,2.80
2023-03-17T02:09:50.300Z,2.70
2023-03-17T02:10:50.281Z,2.70
2023-03-17T02:11:50.277Z,2.60
2023-03-17T02:12:50.267Z,2.40
2023-03-17T02:13:50.260Z,2.70
2023-03-17T02:14:50.248Z,2.70
2023-03-17T02:15:50.233Z,2.60
2023-03-17T02:16:50.226Z,2.50
2023-03-17T02:17:50.200Z,2.30
2023-03-17T02:18:50.179Z,2.80
2023-03-17T02:19:50.204Z,2.40
2023-03-17T02:20:50.183Z,2.90
2023-03-17T02:21:50.194Z,2.60
2023-03-17T02:22:50.135Z,2.50
2023-03-17T02:23:50.194Z,2.50
2023-03-17T02:24:50.117Z,2.50
2023-03-17T02:25:50.118Z,2.50
2023-03-17T02:26:50.080Z,2.60
2023-03-17T02:27:50.066Z,2.80
2023-03-17T02:28:50.192Z,2.60
2023-03-17T02:29:50.044Z,2.60
2023-03-17T02:30:50.063Z,2.60
2023-03-17T02:31:50.010Z,3.00
2023-03-17T02:32:50.090Z,2.70
2023-03-17T02:33:49.978Z,2.80
2023-03-17T02:34:49.992Z,2.40
2023-03-17T02:35:49.970Z,2.70
2023-03-17T02:36:49.980Z,3.20
2023-03-17T02:37:49.929Z,2.40
2023-03-17T02:38:49.953Z,2.30
2023-03-17T02:39:49.950Z,2.70
2023-03-17T02:40:49.879Z,2.70
2023-03-17T02:41:49.871Z,2.60
2023-03-17T02:42:49.867Z,2.90
2023-03-17T02:43:49.859Z,2.70
2023-03-17T02:44:49.848Z,2.70
2023-03-17T02:45:49.898Z,2.70
2023-03-17T02:46:49.809Z,2.70
2023-03-17T02:47:49.817Z,2.60
2023-03-17T02:48:49.781Z,2.20
2023-03-17T02:49:49.784Z,2.70
2023-03-17T02:50:49.765Z,3.20
2023-03-17T02:51:49.747Z,2.80
2023-03-17T02:52:49.740Z,2.60
2023-03-17T02:53:49.727Z,2.60
2023-03-17T02:54:49.724Z,2.40
2023-03-17T02:55:49.715Z,2.70
2023-03-17T02:56:49.717Z,2.60
2023-03-17T02:57:49.659Z,2.60
2023-03-17T02:58:49.697Z,2.50
2023-03-17T02:59:49.674Z,2.70
2023-03-17T03:00:49.646Z,2.70
2023-03-17T03:01:49.640Z,2.70
2023-03-17T03:02:49.624Z,2.60
2023-03-17T03:03:49.593Z,2.20
2023-03-17T03:04:49.592Z,2.40
2023-03-17T03:05:49.586Z,2.60
2023-03-17T03:06:49.684Z,2.80
2023-03-17T03:07:49.571Z,2.60
2023-03-17T03:08:49.540Z,2.60
2023-03-17T03:09:49.510Z,2.40
2023-03-17T03:10:49.556Z,2.50
2023-03-17T03:11:49.527Z,2.70
2023-03-17T03:12:49.498Z,2.50
2023-03-17T03:13:49.447Z,2.60
2023-03-17T03:14:49.451Z,2.90
2023-03-17T03:15:49.456Z,2.30
2023-03-17T03:16:49.410Z,2.70
2023-03-17T03:17:49.394Z,2.80
2023-03-17T03:18:49.390Z,2.80
2023-03-17T03:19:49.373Z,2.50
2023-03-17T03:20:49.380Z,2.50
2023-03-17T03:21:49.347Z,2.70
2023-03-17T03:22:49.335Z,2.30
2023-03-17T03:23:49.342Z,2.60
2023-03-17T03:24:49.325Z,2.70
2023-03-17T03:25:49.315Z,2.80
2023-03-17T03:26:49.282Z,2.60
2023-03-17T03:27:49.274Z,2.80
2023-03-17T03:28:49.267Z,2.60
2023-03-17T03:29:49.241Z,2.50
2023-03-17T03:30:49.270Z,2.40
2023-03-17T03:31:49.216Z,2.70
2023-03-17T03:32:49.218Z,2.60
2023-03-17T03:33:49.190Z,2.50
2023-03-17T03:34:49.180Z,2.70
2023-03-17T03:35:49.188Z,2.60
2023-03-17T03:36:49.209Z,2.90
2023-03-17T03:37:49.139Z,3.00
2023-03-17T03:38:49.182Z,2.80
2023-03-17T03:39:49.109Z,2.90
2023-03-17T03:40:49.157Z,2.70
2023-03-17T03:41:49.076Z,3.00
2023-03-17T03:42:49.158Z,2.80
2023-03-17T03:43:49.062Z,2.80
2023-03-17T03:44:49.087Z,2.60
2023-03-17T03:45:49.039Z,2.80
2023-03-17T03:46:49.105Z,3.20
2023-03-17T03:47:48.993Z,3.00
2023-03-17T03:48:49.018Z,3.00
2023-03-17T03:49:48.991Z,3.00
2023-03-17T03:50:49.028Z,2.60
2023-03-17T03:51:48.954Z,2.70
2023-03-17T03:52:48.972Z,2.90
2023-03-17T03:53:48.928Z,3.00
2023-03-17T03:54:48.941Z,2.60
2023-03-17T03:55:48.914Z,2.70
2023-03-17T03:56:48.926Z,2.70
2023-03-17T03:57:48.873Z,2.90
2023-03-17T03:58:48.891Z,2.90
2023-03-17T03:59:48.864Z,2.90
2023-03-17T04:00:48.849Z,2.50
2023-03-17T04:01:48.848Z,2.70
2023-03-17T04:02:48.813Z,2.80
2023-03-17T04:03:48.801Z,2.90
2023-03-17T04:04:48.846Z,3.20
2023-03-17T04:05:48.809Z,3.30
2023-03-17T04:06:48.762Z,3.30
2023-03-17T04:07:48.738Z,3.00
2023-03-17T04:08:48.753Z,3.30
2023-03-17T04:09:48.722Z,2.90
2023-03-17T04:10:48.808Z,2.90
2023-03-17T04:11:48.679Z,2.90
2023-03-17T04:12:48.714Z,2.70
2023-03-17T04:13:48.654Z,2.90
2023-03-17T04:14:48.702Z,3.10
2023-03-17T04:15:48.677Z,3.00
2023-03-17T04:16:48.690Z,3.00
2023-03-17T04:17:48.591Z,3.00
2023-03-17T04:18:48.657Z,3.10
2023-03-17T04:19:48.577Z,2.80
2023-03-17T04:20:48.562Z,3.20
2023-03-17T04:21:48.554Z,3.20
2023-03-17T04:22:48.525Z,3.00
2023-03-17T04:23:48.565Z,2.70
2023-03-17T04:24:48.502Z,2.70
2023-03-17T04:25:48.576Z,2.70
2023-03-17T04:26:48.488Z,2.80
2023-03-17T04:27:48.493Z,2.80
2023-03-17T04:28:48.453Z,3.00
2023-03-17T04:29:48.493Z,2.90
2023-03-17T04:30:48.462Z,3.00
2023-03-17T04:31:48.478Z,3.20
2023-03-17T04:32:48.408Z,2.70
2023-03-17T04:33:48.427Z,2.80
2023-03-17T04:34:48.383Z,2.70
2023-03-17T04:35:48.455Z,2.60
2023-03-17T04:36:48.340Z,2.60
2023-03-17T04:37:48.338Z,2.50
2023-03-17T04:38:48.327Z,3.10
2023-03-17T04:39:48.307Z,2.90
2023-03-17T04:40:48.307Z,2.70
2023-03-17T04:41:48.297Z,2.60
2023-03-17T04:42:48.276Z,2.70
2023-03-17T04:43:48.258Z,2.90
2023-03-17T04:44:48.254Z,2.70
2023-03-17T04:45:48.289Z,2.80
2023-03-17T04:46:48.209Z,2.60
2023-03-17T04:47:48.202Z,2.80
2023-03-17T04:48:48.204Z,2.80
2023-03-17T04:49:48.180Z,2.70
2023-03-17T04:50:48.165Z,2.60
2023-03-17T04:51:48.152Z,2.70
2023-03-17T04:52:48.138Z,2.70
2023-03-17T04:53:48.136Z,2.90
2023-03-17T04:54:48.115Z,3.10
2023-03-17T04:55:49.099Z,3.10
2023-03-17T04:56:48.094Z,3.50
2023-03-17T04:57:48.076Z,3.20
2023-03-17T04:58:48.061Z,3.10
2023-03-17T04:59:48.089Z,2.90
2023-03-17T05:00:48.064Z,2.50
2023-03-17T05:01:48.029Z,2.70
2023-03-17T05:02:48.006Z,2.90
2023-03-17T05:03:47.993Z,2.70
2023-03-17T05:04:48.007Z,3.00
2023-03-17T05:05:47.988Z,2.70
2023-03-17T05:06:47.950Z,2.60
2023-03-17T05:07:47.935Z,2.90
2023-03-17T05:08:47.925Z,2.60
2023-03-17T05:09:47.910Z,2.80
2023-03-17T05:10:47.876Z,2.70
2023-03-17T05:11:47.880Z,3.00
2023-03-17T05:12:47.857Z,2.90
2023-03-17T05:13:47.847Z,3.30
2023-03-17T05:14:47.830Z,3.00
2023-03-17T05:15:47.820Z,2.90
2023-03-17T05:16:47.878Z,2.80
2023-03-17T05:17:47.796Z,2.80
2023-03-17T05:18:47.809Z,2.70
2023-03-17T05:19:47.807Z,3.00
2023-03-17T05:20:47.810Z,3.30
2023-03-17T05:21:47.786Z,3.30
2023-03-17T05:22:47.765Z,3.40
2023-03-17T05:23:47.725Z,3.10
2023-03-17T05:24:47.776Z,3.00
2023-03-17T05:25:47.811Z,3.10
2023-03-17T05:26:47.745Z,3.30
2023-03-17T05:27:47.669Z,3.10
2023-03-17T05:28:47.652Z,3.60
2023-03-17T05:29:47.637Z,3.40
2023-03-17T05:30:47.625Z,3.80
2023-03-17T05:31:47.618Z,3.80
2023-03-17T05:32:47.639Z,3.30
2023-03-17T05:33:47.579Z,3.70
2023-03-17T05:34:47.574Z,3.60
2023-03-17T05:35:47.598Z,3.40
2023-03-17T05:36:47.563Z,3.30
2023-03-17T05:37:47.532Z,5.00
2023-03-17T05:38:47.526Z,5.90
2023-03-17T05:39:47.529Z,6.30
2023-03-17T05:40:47.495Z,6.50
2023-03-17T05:41:47.494Z,8.90
2023-03-17T05:42:47.473Z,7.20
2023-03-17T05:43:47.469Z,5.30
2023-03-17T05:44:47.445Z,4.90
2023-03-17T05:45:47.476Z,4.00
2023-03-17T05:46:47.417Z,4.40
2023-03-17T05:47:47.413Z,3.90
2023-03-17T05:48:47.388Z,3.90
2023-03-17T05:49:47.372Z,4.30
2023-03-17T05:50:47.364Z,3.90
2023-03-17T05:51:47.352Z,3.30
2023-03-17T05:52:47.326Z,3.90
2023-03-17T05:53:47.335Z,4.10
2023-03-17T05:54:47.298Z,4.70
2023-03-17T05:55:47.297Z,4.50
2023-03-17T05:56:47.275Z,4.20
2023-03-17T05:57:47.275Z,4.60
2023-03-17T05:58:47.254Z,4.10
2023-03-17T05:59:47.250Z,4.20
2023-03-17T06:00:47.244Z,4.30
2023-03-17T06:01:47.225Z,4.20
2023-03-17T06:02:47.431Z,3.70
2023-03-17T06:03:47.283Z,3.90
2023-03-17T06:04:47.170Z,3.50
2023-03-17T06:05:47.154Z,3.50
2023-03-17T06:06:47.152Z,4.10
2023-03-17T06:07:54.000Z,3.50
2023-03-17T06:08:47.132Z,4.10
2023-03-17T06:09:47.100Z,4.30
2023-03-17T06:10:47.108Z,4.30
2023-03-17T06:11:47.081Z,4.90
2023-03-17T06:12:47.075Z,4.10
2023-03-17T06:13:47.055Z,3.80
2023-03-17T06:14:47.047Z,3.30
2023-03-17T06:15:47.078Z,3.40
2023-03-17T06:16:47.010Z,3.30
2023-03-17T06:17:47.022Z,3.30
2023-03-17T06:18:46.995Z,3.50
2023-03-17T06:19:49.382Z,3.40
2023-03-17T06:20:46.961Z,3.40
2023-03-17T06:21:46.951Z,3.30
2023-03-17T06:23:02.851Z,3.80
2023-03-17T06:23:46.924Z,3.40
2023-03-17T06:24:46.905Z,3.90
2023-03-17T06:25:46.958Z,3.90
2023-03-17T06:26:46.890Z,3.70
2023-03-17T06:27:46.919Z,3.40
2023-03-17T06:28:46.863Z,3.60
2023-03-17T06:29:46.865Z,3.60
2023-03-17T06:30:46.882Z,3.80
2023-03-17T06:31:46.826Z,3.80
2023-03-17T06:32:46.822Z,3.70
2023-03-17T06:33:46.795Z,3.70
2023-03-17T06:34:46.776Z,3.80
2023-03-17T06:35:46.830Z,4.40
2023-03-17T06:36:46.738Z,4.10
2023-03-17T06:37:46.751Z,3.70
2023-03-17T06:38:46.715Z,3.70
2023-03-17T06:39:46.726Z,4.20
2023-03-17T06:40:46.705Z,4.00
2023-03-17T06:41:46.701Z,4.50
2023-03-17T06:42:46.671Z,6.50
2023-03-17T06:43:46.662Z,5.20
2023-03-17T06:44:46.692Z,4.10
2023-03-17T06:45:46.642Z,3.80
2023-03-17T06:46:46.796Z,4.30
2023-03-17T06:47:46.625Z,3.80
2023-03-17T06:48:46.577Z,3.60
2023-03-17T06:49:46.613Z,4.00
2023-03-17T06:50:46.555Z,4.00
2023-03-17T06:51:46.549Z,4.20
2023-03-17T06:52:46.944Z,4.00
2023-03-17T06:53:46.552Z,4.90
2023-03-17T06:54:46.522Z,4.20
2023-03-17T06:55:46.503Z,4.30
2023-03-17T06:56:46.472Z,4.00
2023-03-17T06:57:46.483Z,4.30
2023-03-17T06:58:46.495Z,4.70
2023-03-17T06:59:46.438Z,6.70
2023-03-17T07:00:46.419Z,6.50
2023-03-17T07:01:46.508Z,6.50
2023-03-17T07:02:46.391Z,5.70
2023-03-17T07:03:46.401Z,5.80
2023-03-17T07:04:46.417Z,5.10
2023-03-17T07:05:46.365Z,5.30
2023-03-17T07:06:46.362Z,5.20
2023-03-17T07:07:46.422Z,5.20
2023-03-17T07:08:46.340Z,5.40
2023-03-17T07:09:46.303Z,5.10
2023-03-17T07:10:46.288Z,4.80
2023-03-17T07:11:46.333Z,4.50
2023-03-17T07:12:46.270Z,4.80
2023-03-17T07:13:46.282Z,4.80
2023-03-17T07:14:46.261Z,4.40
2023-03-17T07:15:46.238Z,4.40
2023-03-17T07:16:46.298Z,4.60
2023-03-17T07:17:46.238Z,4.20
2023-03-17T07:18:46.209Z,4.10
2023-03-17T07:19:46.166Z,4.80
2023-03-17T07:20:46.156Z,4.10
2023-03-17T07:21:47.129Z,4.70
2023-03-17T07:22:46.161Z,4.60
2023-03-17T07:23:46.139Z,3.90
2023-03-17T07:24:45.175Z,4.20
2023-03-17T07:25:46.129Z,4.10
2023-03-17T07:26:46.078Z,3.90
2023-03-17T07:27:46.057Z,3.80
2023-03-17T07:28:46.080Z,3.50
2023-03-17T07:29:46.106Z,3.50
2023-03-17T07:30:46.033Z,3.30
2023-03-17T07:31:46.170Z,3.30
2023-03-17T07:32:46.054Z,3.10
2023-03-17T07:33:46.023Z,3.20
2023-03-17T07:34:46.002Z,3.80
2023-03-17T07:35:46.002Z,3.00
2023-03-17T07:36:45.972Z,2.90
2023-03-17T07:37:45.929Z,3.20
2023-03-17T07:38:45.985Z,3.30
2023-03-17T07:39:45.904Z,3.30
2023-03-17T07:40:45.939Z,3.10
2023-03-17T07:41:45.877Z,3.00
2023-03-17T07:42:45.857Z,3.00
2023-03-17T07:43:45.872Z,3.30
2023-03-17T07:44:45.847Z,2.90
2023-03-17T07:45:45.874Z,2.70
2023-03-17T07:46:45.812Z,3.20
2023-03-17T07:47:45.784Z,2.90
2023-03-17T07:48:45.831Z,3.00
2023-03-17T07:49:45.867Z,2.80
2023-03-17T07:50:45.763Z,3.00
2023-03-17T07:51:45.767Z,3.30
2023-03-17T07:52:45.724Z,3.00
2023-03-17T07:53:45.741Z,3.10
2023-03-17T07:54:45.716Z,2.80
2023-03-17T07:55:45.712Z,3.30
2023-03-17T07:56:45.688Z,3.60
2023-03-17T07:57:45.710Z,3.00
2023-03-17T07:58:45.677Z,2.80
2023-03-17T07:59:45.714Z,3.20
2023-03-17T08:00:45.694Z,3.20
2023-03-17T08:01:45.632Z,2.90
2023-03-17T08:02:48.180Z,3.20
2023-03-17T08:03:45.616Z,3.30
2023-03-17T08:04:45.599Z,2.60
2023-03-17T08:05:45.551Z,3.10
2023-03-17T08:06:45.560Z,3.20
2023-03-17T08:07:45.556Z,3.40
2023-03-17T08:08:45.515Z,2.70
2023-03-17T08:09:45.586Z,2.80
2023-03-17T08:10:45.509Z,3.60
2023-03-17T08:11:45.473Z,3.10
2023-03-17T08:12:45.586Z,2.80
2023-03-17T08:13:45.490Z,3.70
2023-03-17T08:14:45.481Z,2.90
2023-03-17T08:15:45.408Z,2.90
2023-03-17T08:16:45.477Z,2.90
2023-03-17T08:17:45.397Z,2.50
2023-03-17T08:18:45.398Z,3.10
2023-03-17T08:19:45.363Z,2.90
2023-03-17T08:20:45.371Z,2.70
2023-03-17T08:21:45.500Z,2.80
2023-03-17T08:22:45.328Z,2.80
2023-03-17T08:23:45.312Z,3.00
2023-03-17T08:24:45.341Z,3.00
2023-03-17T08:25:45.327Z,2.60
2023-03-17T08:26:45.306Z,2.60
2023-03-17T08:27:45.295Z,2.60
2023-03-17T08:28:45.365Z,2.60
2023-03-17T08:29:45.237Z,2.50
2023-03-17T08:30:45.319Z,3.00
2023-03-17T08:31:46.623Z,2.70
2023-03-17T08:32:45.189Z,2.80
2023-03-17T08:33:45.185Z,2.50
2023-03-17T08:34:45.192Z,2.30
2023-03-17T08:35:45.221Z,2.70
2023-03-17T08:36:45.165Z,2.60
2023-03-17T08:37:45.127Z,2.50
2023-03-17T08:38:45.147Z,2.60
2023-03-17T08:39:45.157Z,2.50
2023-03-17T08:40:45.136Z,2.30
2023-03-17T08:41:45.095Z,2.50
2023-03-17T08:42:45.089Z,2.50
2023-03-17T08:43:45.123Z,2.50
2023-03-17T08:44:45.055Z,2.50
2023-03-17T08:45:45.089Z,2.20
2023-03-17T08:46:45.019Z,2.60
2023-03-17T08:47:45.041Z,2.80
2023-03-17T08:48:45.029Z,2.50
2023-03-17T08:49:44.988Z,2.20
2023-03-17T08:50:44.957Z,2.80
2023-03-17T08:51:44.951Z,3.00
2023-03-17T08:52:44.945Z,2.90
2023-03-17T08:53:44.918Z,2.90
2023-03-17T08:54:44.968Z,2.40
2023-03-17T08:55:44.944Z,2.60
2023-03-17T08:56:44.880Z,2.30
2023-03-17T08:57:47.990Z,2.40
2023-03-17T08:58:44.862Z,2.30
2023-03-17T08:59:44.853Z,2.60
2023-03-17T09:00:44.859Z,2.40
2023-03-17T09:01:44.906Z,2.60
2023-03-17T09:02:44.848Z,2.40
2023-03-17T09:03:44.774Z,2.30
2023-03-17T09:04:44.784Z,2.30
2023-03-17T09:05:44.762Z,2.60
2023-03-17T09:07:01.936Z,2.40
2023-03-17T09:08:05.811Z,2.50
2023-03-17T09:08:45.029Z,2.00
2023-03-17T09:09:44.725Z,2.10
2023-03-17T09:10:44.723Z,2.20
2023-03-17T09:11:44.698Z,3.20
2023-03-17T09:19:44.436Z,2.80
2023-03-17T09:20:45.463Z,2.50
2023-03-17T09:21:45.426Z,2.30
2023-03-17T09:22:45.435Z,2.60
2023-03-17T09:23:45.387Z,2.50
2023-03-17T09:24:45.365Z,2.20
2023-03-17T09:25:45.388Z,2.30
2023-03-17T09:26:45.349Z,2.30
2023-03-17T09:27:45.368Z,2.30
2023-03-17T09:28:45.329Z,2.20
2023-03-17T09:29:45.367Z,2.20
2023-03-17T09:30:45.338Z,2.20
2023-03-17T09:31:45.331Z,2.40
2023-03-17T09:32:45.418Z,2.30
2023-03-17T09:33:45.280Z,2.20
2023-03-17T09:34:45.337Z,2.80
2023-03-17T09:35:45.308Z,3.70
2023-03-17T09:36:45.270Z,2.20
2023-03-17T09:37:45.232Z,2.60
2023-03-17T09:38:45.197Z,2.60
2023-03-17T09:39:45.166Z,2.30
2023-03-17T09:40:45.176Z,2.60
2023-03-17T09:41:45.162Z,2.10
2023-03-17T09:42:45.227Z,2.50
2023-03-17T09:43:45.124Z,1.90
2023-03-17T09:44:45.251Z,2.20
2023-03-17T09:45:45.091Z,2.20
2023-03-17T09:46:45.128Z,2.60
2023-03-17T09:47:45.166Z,2.30
2023-03-17T09:48:45.153Z,2.20
2023-03-17T09:49:47.109Z,2.40
2023-03-17T09:50:45.146Z,2.30
2023-03-17T09:51:45.020Z,2.30
2023-03-17T09:52:45.007Z,2.40
2023-03-17T09:53:45.010Z,2.20
2023-03-17T09:54:44.999Z,2.10
2023-03-17T09:55:44.957Z,2.50
2023-03-17T09:56:44.972Z,2.20
2023-03-17T09:57:44.940Z,2.30
2023-03-17T09:58:44.939Z,2.20
2023-03-17T09:59:44.934Z,2.40
2023-03-17T10:00:56.409Z,2.40
2023-03-17T10:01:44.895Z,2.00
2023-03-17T10:02:44.907Z,2.20
2023-03-17T10:03:44.833Z,2.60
2023-03-17T10:04:44.832Z,2.40
2023-03-17T10:05:44.890Z,2.30
2023-03-17T10:06:45.047Z,2.20
2023-03-17T10:07:44.776Z,2.50
2023-03-17T10:08:44.766Z,2.40
2023-03-17T10:09:44.765Z,2.40
2023-03-17T10:10:44.774Z,2.40
2023-03-17T10:11:44.744Z,2.20
2023-03-17T10:12:44.711Z,2.40
2023-03-17T10:13:44.735Z,2.20
2023-03-17T10:14:44.721Z,2.30
2023-03-17T10:15:44.721Z,2.10
2023-03-17T10:16:44.704Z,2.30
2023-03-17T10:17:44.715Z,2.30
2023-03-17T10:18:44.636Z,2.20
2023-03-17T10:19:44.642Z,2.90
2023-03-17T10:20:44.657Z,2.50
2023-03-17T10:21:44.591Z,2.20
2023-03-17T10:22:44.579Z,2.50
2023-03-17T10:23:44.598Z,2.50
2023-03-17T10:24:44.551Z,2.40
2023-03-17T10:25:44.590Z,2.30
2023-03-17T10:26:44.592Z,2.30
2023-03-17T10:27:44.529Z,2.00
2023-03-17T10:28:44.537Z,2.30
2023-03-17T10:29:46.464Z,2.20
2023-03-17T10:30:44.513Z,2.40
2023-03-17T10:31:44.560Z,2.40
2023-03-17T10:32:44.478Z,2.40
2023-03-17T10:33:44.432Z,2.10
2023-03-17T10:34:44.504Z,2.30
2023-03-17T10:35:44.422Z,2.40
2023-03-17T10:36:44.667Z,2.40
2023-03-17T10:37:44.405Z,2.40
2023-03-17T10:38:44.364Z,2.50
2023-03-17T10:39:44.377Z,2.00
2023-03-17T10:40:44.346Z,2.40
2023-03-17T10:41:44.347Z,2.20
2023-03-17T10:42:44.368Z,2.70
2023-03-17T10:43:44.303Z,2.40
2023-03-17T10:44:44.318Z,2.40
2023-03-17T10:45:45.345Z,2.60
2023-03-17T10:46:44.374Z,2.50
2023-03-17T10:47:44.252Z,2.10
2023-03-17T10:48:44.254Z,2.40
2023-03-17T10:49:44.227Z,2.40
2023-03-17T10:50:44.201Z,2.40
2023-03-17T10:51:44.209Z,2.30
2023-03-17T10:52:44.186Z,2.40
2023-03-17T10:53:44.160Z,2.60
2023-03-17T10:54:44.143Z,2.30
2023-03-17T10:55:44.140Z,2.20
2023-03-17T10:56:44.120Z,2.40
2023-03-17T10:57:44.153Z,2.40
2023-03-17T10:58:44.118Z,2.20
2023-03-17T10:59:44.582Z,2.40
2023-03-17T11:00:44.077Z,2.30
2023-03-17T11:01:44.158Z,2.30
2023-03-17T11:02:44.237Z,2.30
2023-03-17T11:03:44.071Z,2.40
2023-03-17T11:04:44.061Z,2.40
2023-03-17T11:05:44.014Z,2.60
2023-03-17T11:06:44.001Z,2.50
2023-03-17T11:07:44.034Z,2.10
2023-03-17T11:08:43.999Z,2.40
2023-03-17T11:09:43.965Z,2.30
2023-03-17T11:10:43.952Z,2.50
2023-03-17T11:11:43.939Z,2.30
2023-03-17T11:12:43.932Z,2.20
2023-03-17T11:13:43.900Z,2.30
2023-03-17T11:14:43.877Z,2.20
2023-03-17T11:15:43.931Z,2.50
2023-03-17T11:16:44.237Z,2.30
2023-03-17T11:17:43.901Z,2.30
2023-03-17T11:18:43.870Z,2.10
2023-03-17T11:19:43.846Z,2.10
2023-03-17T11:20:43.789Z,2.30
2023-03-17T11:21:43.807Z,2.30
2023-03-17T11:22:43.781Z,2.10
2023-03-17T11:23:43.777Z,2.40
2023-03-17T11:24:43.756Z,2.20
2023-03-17T11:25:43.733Z,2.10
2023-03-17T11:26:43.731Z,2.20
2023-03-17T11:27:43.725Z,2.70
2023-03-17T11:28:43.705Z,2.20
2023-03-17T11:29:43.753Z,2.80
2023-03-17T11:30:43.703Z,2.30
2023-03-17T11:31:43.677Z,2.50
2023-03-17T11:32:43.787Z,2.20
2023-03-17T11:33:43.634Z,2.40
2023-03-17T11:34:43.600Z,2.10
2023-03-17T11:35:43.647Z,2.30
2023-03-17T11:36:43.584Z,2.40
2023-03-17T11:37:43.632Z,2.50
2023-03-17T11:38:43.548Z,2.40
2023-03-17T11:39:43.545Z,2.30
2023-03-17T11:40:43.515Z,2.20
2023-03-17T11:41:43.574Z,2.30
2023-03-17T11:42:43.493Z,2.20
2023-03-17T11:43:43.483Z,2.20
2023-03-17T11:44:43.481Z,2.80
2023-03-17T11:46:04.462Z,2.40
2023-03-17T11:46:43.517Z,2.30
2023-03-17T11:47:43.504Z,2.50
2023-03-17T11:48:43.442Z,2.40
2023-03-17T11:49:43.438Z,2.20
2023-03-17T11:50:43.421Z,2.50
2023-03-17T11:51:43.432Z,2.40
2023-03-17T11:52:43.376Z,2.70
2023-03-17T11:53:43.411Z,2.40
2023-03-17T11:54:43.351Z,2.40
2023-03-17T11:55:43.314Z,2.40
2023-03-17T11:56:43.321Z,2.40
2023-03-17T11:57:43.297Z,2.50
2023-03-17T11:58:43.295Z,2.20
2023-03-17T11:59:43.261Z,2.40
2023-03-17T12:01:04.307Z,2.30
2023-03-17T12:01:43.282Z,2.30
2023-03-17T12:02:43.252Z,2.30
2023-03-17T12:03:43.265Z,2.60
2023-03-17T12:04:43.301Z,2.20
2023-03-17T12:05:43.255Z,3.00
2023-03-17T12:06:43.254Z,2.20
2023-03-17T12:07:43.158Z,2.90
2023-03-17T12:08:43.166Z,2.60
2023-03-17T12:09:43.140Z,2.50
2023-03-17T12:10:43.107Z,2.70
2023-03-17T12:11:43.183Z,2.40
2023-03-17T12:12:50.938Z,2.30
2023-03-17T12:15:43.902Z,2.80
2023-03-17T12:16:44.824Z,2.70
2023-03-17T12:17:44.786Z,2.50
2023-03-17T12:18:44.801Z,2.20
2023-03-17T12:19:44.788Z,2.60
2023-03-17T12:21:56.842Z,2.50
2023-03-17T12:22:57.805Z,2.60
2023-03-17T12:23:58.029Z,2.30
2023-03-17T12:24:57.762Z,2.60
2023-03-17T12:25:57.769Z,2.40
2023-03-17T12:26:57.855Z,2.10
2023-03-17T12:28:18.737Z,2.30
2023-03-17T12:28:57.920Z,2.20
2023-03-17T12:29:57.950Z,2.30
2023-03-17T12:30:57.892Z,2.50
2023-03-17T12:31:57.752Z,2.60
2023-03-17T12:32:57.750Z,2.50
2023-03-17T12:33:57.707Z,2.40
2023-03-17T12:35:18.651Z,1.90
2023-03-17T12:35:57.646Z,2.00
2023-03-17T12:36:57.642Z,2.10
2023-03-17T12:37:57.629Z,2.20
2023-03-17T12:38:57.577Z,2.00
2023-03-17T12:39:57.587Z,1.80
2023-03-17T12:40:57.562Z,2.10
2023-03-17T12:41:57.572Z,1.90
2023-03-17T12:42:57.618Z,2.10
2023-03-17T12:43:57.524Z,2.40
2023-03-17T12:44:57.525Z,2.20
2023-03-17T12:45:57.585Z,2.50
2023-03-17T12:46:57.617Z,2.00
2023-03-17T12:47:57.473Z,2.00
2023-03-17T12:48:57.434Z,2.30
2023-03-17T12:49:57.449Z,2.20
2023-03-17T12:50:57.415Z,2.10
2023-03-17T12:51:57.401Z,2.20
2023-03-17T12:52:57.436Z,2.30
2023-03-17T12:53:57.377Z,2.00
2023-03-17T12:54:57.389Z,2.00
2023-03-17T12:55:57.390Z,2.20
2023-03-17T12:56:57.352Z,2.40
2023-03-17T12:57:57.306Z,2.00
2023-03-17T12:58:57.300Z,2.10
2023-03-17T12:59:57.287Z,2.20
2023-03-17T13:00:57.371Z,2.30
2023-03-17T13:01:57.410Z,2.20
2023-03-17T13:02:57.392Z,2.30
2023-03-17T13:03:57.238Z,2.10
2023-03-17T13:04:57.206Z,2.50
2023-03-17T13:05:57.234Z,2.50
2023-03-17T13:06:57.199Z,2.70
2023-03-17T13:07:57.278Z,2.20
2023-03-17T13:08:57.341Z,2.20
2023-03-17T13:09:57.217Z,2.50
2023-03-17T13:10:57.155Z,2.40
2023-03-17T13:11:57.343Z,2.30
2023-03-17T13:12:57.208Z,2.60
2023-03-17T13:13:57.100Z,2.40
2023-03-17T13:14:57.104Z,2.30
2023-03-17T13:15:57.166Z,2.60
2023-03-17T13:16:57.053Z,2.20
2023-03-17T13:17:57.260Z,2.60
2023-03-17T13:18:57.033Z,2.30
2023-03-17T13:19:57.016Z,3.00
2023-03-17T13:20:57.026Z,2.30
2023-03-17T13:21:56.992Z,2.40
2023-03-17T13:22:57.109Z,2.40
2023-03-17T13:23:57.026Z,2.50
2023-03-17T13:24:56.950Z,2.60
2023-03-17T13:25:56.972Z,2.60
2023-03-17T13:26:56.951Z,2.10
2023-03-17T13:27:56.934Z,2.90
2023-03-17T13:28:56.910Z,2.40